createdAt,value
2022-10-17T00:00:34.569Z,5.73
2022-10-17T00:03:03.171Z,4.70
2022-10-17T00:05:32.509Z,6.03
2022-10-17T00:08:00.551Z,12.53
2022-10-17T00:10:28.587Z,13.97
2022-10-17T00:12:56.599Z,5.70
2022-10-17T00:15:24.540Z,6.53
2022-10-17T00:17:52.610Z,7.07
2022-10-17T00:20:20.852Z,10.33
2022-10-17T00:22:50.273Z,10.83
2022-10-17T00:25:20.168Z,6.80
2022-10-17T00:27:48.201Z,4.77
2022-10-17T00:30:17.215Z,7.50
2022-10-17T00:32:45.267Z,5.83
2022-10-17T00:35:13.388Z,9.07
2022-10-17T00:37:41.399Z,8.40
2022-10-17T00:40:12.218Z,5.87
2022-10-17T00:42:40.245Z,8.87
2022-10-17T00:45:18.684Z,6.97
2022-10-17T00:47:50.351Z,5.60
2022-10-17T00:50:18.850Z,6.10
2022-10-17T00:52:47.266Z,8.13
2022-10-17T00:55:19.803Z,5.57
2022-10-17T00:57:48.130Z,7.70
2022-10-17T01:00:18.129Z,7.90
2022-10-17T01:02:46.716Z,6.90
2022-10-17T01:05:15.782Z,6.23
2022-10-17T01:07:44.469Z,6.70
2022-10-17T01:10:12.928Z,6.00
2022-10-17T01:12:53.166Z,6.63
2022-10-17T01:15:27.807Z,8.30
2022-10-17T01:18:04.946Z,8.43
2022-10-17T01:21:00.384Z,6.30
2022-10-17T01:24:05.579Z,5.10
2022-10-17T01:26:48.789Z,10.73
2022-10-17T01:29:34.810Z,4.90
2022-10-17T01:32:06.005Z,8.97
2022-10-17T01:34:37.128Z,9.20
2022-10-17T01:37:08.222Z,5.90
2022-10-17T01:39:45.333Z,5.13
2022-10-17T01:42:18.572Z,9.53
2022-10-17T01:44:49.734Z,10.90
2022-10-17T01:47:21.101Z,6.50
2022-10-17T01:49:51.207Z,6.80
2022-10-17T01:52:22.312Z,6.97
2022-10-17T01:54:52.652Z,6.00
2022-10-17T01:57:24.834Z,7.93
2022-10-17T01:59:57.836Z,6.13
2022-10-17T02:02:32.806Z,9.87
2022-10-17T02:05:05.388Z,19.40
2022-10-17T02:07:36.506Z,8.10
2022-10-17T02:10:14.496Z,14.60
2022-10-17T02:12:49.166Z,11.13
2022-10-17T02:15:36.002Z,10.00
2022-10-17T02:18:24.605Z,6.93
2022-10-17T02:20:55.733Z,5.67
2022-10-17T02:23:28.984Z,5.13
2022-10-17T02:26:05.334Z,9.77
2022-10-17T02:28:39.923Z,4.70
2022-10-17T02:31:10.392Z,6.10
2022-10-17T02:33:43.615Z,6.70
2022-10-17T02:36:17.928Z,10.13
2022-10-17T02:39:02.408Z,6.30
2022-10-17T02:41:31.701Z,8.53
2022-10-17T02:44:02.372Z,9.70
2022-10-17T02:46:31.945Z,10.70
2022-10-17T02:49:03.162Z,10.80
2022-10-17T02:51:36.401Z,7.67
2022-10-17T02:54:09.890Z,10.47
2022-10-17T02:56:42.457Z,11.83
2022-10-17T02:59:11.586Z,24.40
2022-10-17T03:01:39.885Z,21.37
2022-10-17T03:04:11.034Z,12.80
2022-10-17T03:06:39.145Z,31.33
2022-10-17T03:09:07.975Z,10.50
2022-10-17T03:11:35.954Z,38.67
2022-10-17T03:14:03.995Z,7.13
2022-10-17T03:16:31.998Z,8.77
2022-10-17T03:18:59.986Z,4.63
2022-10-17T03:21:29.346Z,9.10
2022-10-17T03:23:57.381Z,6.57
2022-10-17T03:26:25.511Z,5.10
2022-10-17T03:28:54.559Z,6.73
2022-10-17T03:31:23.261Z,6.00
2022-10-17T03:33:51.365Z,6.43
2022-10-17T03:36:20.352Z,10.73
2022-10-17T03:38:49.717Z,4.77
2022-10-17T03:41:17.789Z,7.67
2022-10-17T03:43:45.776Z,4.57
2022-10-17T03:46:13.931Z,4.60
2022-10-17T03:48:41.963Z,5.47
2022-10-17T03:51:10.698Z,5.53
2022-10-17T03:53:38.755Z,9.00
2022-10-17T03:56:15.920Z,6.40
2022-10-17T03:58:44.258Z,9.70
2022-10-17T04:01:13.589Z,6.10
2022-10-17T04:03:42.014Z,5.10
2022-10-17T04:06:12.781Z,8.03
2022-10-17T04:08:42.669Z,7.93
2022-10-17T04:11:12.690Z,10.67
2022-10-17T04:13:42.106Z,7.00
2022-10-17T04:16:12.843Z,15.87
2022-10-17T04:18:40.934Z,17.77
2022-10-17T04:21:09.532Z,28.63
2022-10-17T04:23:37.661Z,14.53
2022-10-17T04:26:06.828Z,15.80
2022-10-17T04:28:35.498Z,13.90
2022-10-17T04:31:06.639Z,14.30
2022-10-17T04:33:35.399Z,10.37
2022-10-17T04:36:05.418Z,11.80
2022-10-17T04:38:34.055Z,11.30
2022-10-17T04:41:03.379Z,11.43
2022-10-17T04:43:31.451Z,12.50
2022-10-17T04:45:59.532Z,11.20
2022-10-17T04:48:30.146Z,9.00
2022-10-17T04:50:59.228Z,6.23
2022-10-17T04:53:28.145Z,9.63
2022-10-17T04:55:56.178Z,7.53
2022-10-17T04:58:24.363Z,8.87
2022-10-17T05:00:52.524Z,8.80
2022-10-17T05:03:20.548Z,14.73
2022-10-17T05:05:49.984Z,4.80
2022-10-17T05:08:18.082Z,7.70
2022-10-17T05:10:47.668Z,6.57
2022-10-17T05:13:16.363Z,6.33
2022-10-17T05:15:44.386Z,11.93
2022-10-17T05:18:12.574Z,6.87
2022-10-17T05:20:40.641Z,9.40
2022-10-17T05:23:10.123Z,13.63
2022-10-17T05:25:38.140Z,9.53
2022-10-17T05:28:06.355Z,8.27
2022-10-17T05:30:37.478Z,8.57
2022-10-17T05:33:05.747Z,15.80
2022-10-17T05:35:33.875Z,9.70
2022-10-17T05:38:01.946Z,8.17
2022-10-17T05:40:31.366Z,14.77
2022-10-17T05:42:59.351Z,10.90
2022-10-17T05:45:27.548Z,13.77
2022-10-17T05:47:55.676Z,11.17
2022-10-17T05:50:25.227Z,9.20
2022-10-17T05:52:54.921Z,8.57
2022-10-17T05:55:22.948Z,7.33
2022-10-17T05:57:54.026Z,7.70
2022-10-17T06:00:22.916Z,10.60
2022-10-17T06:02:51.574Z,8.67
2022-10-17T06:05:21.225Z,10.07
2022-10-17T06:07:52.562Z,6.90
2022-10-17T06:10:20.788Z,11.00
2022-10-17T06:12:48.885Z,11.70
2022-10-17T06:15:18.548Z,13.37
2022-10-17T06:17:46.797Z,10.13
2022-10-17T06:20:15.206Z,8.83
2022-10-17T06:22:43.242Z,21.80
2022-10-17T06:25:12.005Z,15.50
2022-10-17T06:27:40.177Z,11.30
2022-10-17T06:30:20.384Z,11.00
2022-10-17T06:32:53.609Z,10.07
2022-10-17T06:35:23.770Z,8.80
2022-10-17T06:37:52.023Z,13.73
2022-10-17T06:40:20.371Z,11.13
2022-10-17T06:42:48.714Z,10.20
2022-10-17T06:45:18.721Z,10.67
2022-10-17T06:47:49.394Z,8.80
2022-10-17T06:50:18.941Z,16.93
2022-10-17T06:52:47.509Z,12.30
2022-10-17T06:55:19.964Z,8.67
2022-10-17T06:57:52.826Z,16.50
2022-10-17T07:00:21.484Z,14.90
2022-10-17T07:02:51.515Z,13.20
2022-10-17T07:05:20.620Z,8.53
2022-10-17T07:07:51.079Z,14.63
2022-10-17T07:10:21.621Z,19.13
2022-10-17T07:13:02.999Z,17.17
2022-10-17T07:15:32.486Z,20.00
2022-10-17T07:18:02.331Z,19.20
2022-10-17T07:20:33.828Z,19.13
2022-10-17T07:23:01.917Z,17.97
2022-10-17T07:25:30.085Z,22.37
2022-10-17T07:27:58.368Z,20.60
2022-10-17T07:30:26.680Z,19.10
2022-10-17T07:32:55.819Z,24.60
2022-10-17T07:35:25.380Z,42.53
2022-10-17T07:37:53.536Z,36.33
2022-10-17T07:40:21.691Z,25.00
2022-10-17T07:42:50.178Z,27.40
2022-10-17T07:45:18.662Z,24.43
2022-10-17T07:47:47.046Z,25.57
2022-10-17T07:50:15.608Z,31.87
2022-10-17T07:52:45.115Z,28.57
2022-10-17T07:55:13.425Z,33.13
2022-10-17T07:57:41.553Z,31.30
2022-10-17T08:00:11.838Z,32.23
2022-10-17T08:02:41.036Z,34.40
2022-10-17T08:05:10.352Z,26.70
2022-10-17T08:07:39.103Z,29.30
2022-10-17T08:12:37.740Z,27.93
2022-10-17T08:15:07.075Z,30.60
2022-10-17T08:17:35.823Z,25.73
2022-10-17T08:20:04.155Z,29.10
2022-10-17T08:22:32.432Z,28.20
2022-10-17T08:25:00.874Z,34.87
2022-10-17T08:27:30.527Z,28.50
2022-10-17T08:29:59.029Z,27.53
2022-10-17T08:32:29.488Z,30.97
2022-10-17T08:34:58.337Z,36.80
2022-10-17T08:37:26.879Z,29.43
2022-10-17T08:39:57.530Z,23.27
2022-10-17T08:42:39.775Z,25.07
2022-10-17T08:45:16.352Z,21.80
2022-10-17T08:47:47.163Z,24.00
2022-10-17T08:50:19.973Z,22.73
2022-10-17T08:52:51.502Z,21.80
2022-10-17T08:55:23.928Z,19.63
2022-10-17T08:57:53.490Z,20.90
2022-10-17T09:00:22.608Z,24.03
2022-10-17T09:02:59.988Z,20.27
2022-10-17T09:05:37.272Z,22.00
2022-10-17T09:08:17.050Z,19.30
2022-10-17T09:10:53.995Z,29.30
2022-10-17T09:13:32.341Z,19.40
2022-10-17T09:16:31.119Z,22.93
2022-10-17T09:19:04.661Z,25.47
2022-10-17T09:21:42.306Z,22.53
2022-10-17T09:24:16.039Z,27.17
2022-10-17T09:26:48.041Z,25.63
2022-10-17T09:29:21.633Z,22.60
2022-10-17T09:34:30.815Z,18.93
2022-10-17T09:37:00.534Z,18.47
2022-10-17T09:39:32.028Z,15.87
2022-10-17T09:42:02.166Z,14.67
2022-10-17T09:44:34.078Z,17.97
2022-10-17T09:47:20.561Z,14.93
2022-10-17T09:49:49.989Z,13.87
2022-10-17T09:52:19.892Z,15.70
2022-10-17T09:54:49.792Z,14.47
2022-10-17T09:57:19.382Z,14.73
2022-10-17T09:59:56.966Z,13.60
2022-10-17T10:02:27.533Z,12.07
2022-10-17T10:05:06.393Z,13.18
2022-10-17T10:07:37.872Z,11.98
2022-10-17T10:10:09.363Z,12.75
2022-10-17T10:12:39.783Z,12.93
2022-10-17T10:15:34.555Z,12.75
2022-10-17T10:18:02.803Z,12.18
2022-10-17T10:20:34.474Z,11.80
2022-10-17T10:23:13.643Z,12.82
2022-10-17T10:25:52.260Z,16.35
2022-10-17T10:28:21.501Z,13.25
2022-10-17T10:30:52.680Z,12.10
2022-10-17T10:33:21.715Z,12.73
2022-10-17T10:35:55.606Z,11.63
2022-10-17T10:38:24.213Z,13.57
2022-10-17T10:40:56.590Z,12.65
2022-10-17T10:43:31.151Z,13.00
2022-10-17T10:46:01.252Z,13.25
2022-10-17T10:48:33.352Z,13.43
2022-10-17T10:51:04.111Z,14.77
2022-10-17T10:53:38.386Z,13.70
2022-10-17T10:56:11.859Z,13.30
2022-10-17T10:58:45.060Z,13.55
2022-10-17T11:01:21.747Z,13.75
2022-10-17T11:03:59.755Z,15.10
2022-10-17T11:06:30.923Z,14.88
2022-10-17T11:09:11.122Z,14.90
2022-10-17T11:11:42.603Z,14.67
2022-10-17T11:14:14.590Z,15.90
2022-10-17T11:16:48.612Z,15.47
2022-10-17T11:19:22.105Z,16.73
2022-10-17T11:21:59.986Z,16.60
2022-10-17T11:24:32.814Z,17.30
2022-10-17T11:27:03.070Z,17.07
2022-10-17T11:29:33.570Z,16.30
2022-10-17T11:32:05.285Z,16.63
2022-10-17T11:34:36.531Z,18.47
2022-10-17T11:37:10.999Z,16.60
2022-10-17T11:42:16.589Z,16.67
2022-10-17T11:44:45.295Z,19.13
2022-10-17T11:47:26.497Z,18.80
2022-10-17T11:51:59.674Z,18.70
2022-10-17T11:52:57.084Z,18.63
2022-10-17T11:55:26.783Z,19.50
2022-10-17T11:58:07.154Z,18.33
2022-10-17T12:00:47.516Z,19.67
2022-10-17T12:03:46.866Z,17.17
2022-10-17T12:06:25.840Z,17.63
2022-10-17T12:09:02.087Z,18.57
2022-10-17T12:11:43.937Z,16.47
2022-10-17T12:14:36.818Z,18.10
2022-10-17T12:17:06.667Z,16.83
2022-10-17T12:19:37.531Z,19.00
2022-10-17T12:22:21.028Z,20.90
2022-10-17T12:24:57.661Z,17.87
2022-10-17T12:27:42.478Z,18.87
2022-10-17T12:30:19.906Z,20.93
2022-10-17T12:33:07.444Z,22.33
2022-10-17T12:35:39.105Z,16.90
2022-10-17T12:38:21.643Z,16.23
2022-10-17T12:40:54.821Z,18.80
2022-10-17T12:46:46.316Z,22.67
2022-10-17T12:49:39.361Z,19.20
2022-10-17T12:52:23.627Z,17.23
2022-10-17T12:55:12.526Z,18.07
2022-10-17T12:57:45.828Z,15.67
2022-10-17T13:00:22.249Z,17.63
2022-10-17T13:02:53.221Z,18.20
2022-10-17T13:05:29.160Z,21.30
2022-10-17T13:08:01.466Z,18.73
2022-10-17T13:10:32.584Z,19.47
2022-10-17T13:13:06.521Z,20.20
2022-10-17T13:15:35.158Z,17.60
2022-10-17T13:18:03.378Z,27.47
2022-10-17T13:20:32.924Z,17.30
2022-10-17T13:23:02.711Z,20.33
2022-10-17T13:25:31.063Z,17.23
2022-10-17T13:28:08.561Z,17.87
2022-10-17T13:30:38.143Z,18.80
2022-10-17T13:33:20.578Z,16.40
2022-10-17T13:35:59.982Z,15.13
2022-10-17T13:38:35.636Z,16.43
2022-10-17T13:41:34.291Z,17.30
2022-10-17T13:44:01.005Z,17.33
2022-10-17T13:46:39.819Z,17.77
2022-10-17T13:49:23.307Z,17.67
2022-10-17T13:51:55.370Z,19.43
2022-10-17T13:54:40.525Z,18.20
2022-10-17T13:57:19.291Z,16.97
2022-10-17T13:59:49.135Z,16.70
2022-10-17T14:02:19.257Z,21.33
2022-10-17T14:05:15.565Z,19.27
2022-10-17T14:08:05.858Z,18.20
2022-10-17T14:10:32.336Z,17.10
2022-10-17T14:13:01.836Z,17.83
2022-10-17T14:15:32.426Z,18.37
2022-10-17T14:18:05.435Z,19.87
2022-10-17T14:23:34.327Z,17.07
2022-10-17T14:26:09.285Z,16.20
2022-10-17T14:28:37.880Z,18.00
2022-10-17T14:31:22.954Z,16.43
2022-10-17T14:33:56.295Z,16.83
2022-10-17T14:36:38.840Z,17.20
2022-10-17T14:39:13.326Z,18.33
2022-10-17T14:41:45.935Z,15.87
2022-10-17T14:44:21.723Z,16.80
2022-10-17T14:46:53.985Z,15.93
2022-10-17T14:49:27.307Z,18.83
2022-10-17T14:52:22.076Z,23.23
2022-10-17T14:54:51.224Z,21.53
2022-10-17T14:57:25.550Z,20.37
2022-10-17T14:59:55.634Z,24.70
2022-10-17T15:02:26.201Z,23.17
2022-10-17T15:04:56.354Z,20.27
2022-10-17T15:07:25.772Z,16.93
2022-10-17T15:09:54.934Z,17.87
2022-10-17T15:12:26.802Z,26.20
2022-10-17T15:14:55.752Z,18.20
2022-10-17T15:17:27.103Z,19.23
2022-10-17T15:19:55.646Z,28.63
2022-10-17T15:22:24.563Z,22.23
2022-10-17T15:24:53.028Z,23.57
2022-10-17T15:27:26.379Z,30.37
2022-10-17T15:29:54.780Z,31.63
2022-10-17T15:32:23.550Z,29.67
2022-10-17T15:34:52.351Z,23.37
2022-10-17T15:37:23.014Z,24.27
2022-10-17T15:39:54.714Z,25.17
2022-10-17T15:42:30.608Z,26.87
2022-10-17T15:44:59.383Z,22.63
2022-10-17T15:47:31.477Z,29.43
2022-10-17T15:50:01.645Z,25.70
2022-10-17T15:52:31.003Z,21.03
2022-10-17T15:55:02.547Z,27.10
2022-10-17T15:57:39.563Z,25.00
2022-10-17T16:00:16.340Z,23.93
2022-10-17T16:02:46.004Z,23.20
2022-10-17T16:05:17.795Z,24.60
2022-10-17T16:07:47.929Z,20.77
2022-10-17T16:10:16.545Z,21.13
2022-10-17T16:12:50.486Z,21.40
2022-10-17T16:15:22.600Z,26.63
2022-10-17T16:17:51.624Z,34.63
2022-10-17T16:20:20.924Z,30.57
2022-10-17T16:22:49.752Z,28.77
2022-10-17T16:25:20.555Z,25.27
2022-10-17T16:27:53.972Z,26.87
2022-10-17T16:30:23.769Z,29.90
2022-10-17T16:32:54.684Z,36.43
2022-10-17T16:35:25.350Z,26.00
2022-10-17T16:37:53.815Z,26.07
2022-10-17T16:40:22.438Z,30.20
2022-10-17T16:42:52.463Z,28.73
2022-10-17T16:45:22.945Z,26.60
2022-10-17T16:47:53.104Z,25.53
2022-10-17T16:50:22.119Z,30.13
2022-10-17T16:52:50.616Z,25.53
2022-10-17T16:55:20.804Z,24.97
2022-10-17T16:57:49.956Z,24.20
2022-10-17T17:00:19.518Z,47.60
2022-10-17T17:02:49.980Z,30.77
2022-10-17T17:05:20.225Z,28.07
2022-10-17T17:07:49.553Z,28.80
2022-10-17T17:10:18.084Z,24.30
2022-10-17T17:12:46.455Z,29.33
2022-10-17T17:15:15.066Z,37.47
2022-10-17T17:17:50.551Z,26.13
2022-10-17T17:20:20.323Z,25.00
2022-10-17T17:22:51.019Z,26.27
2022-10-17T17:25:19.930Z,29.93
2022-10-17T17:27:50.288Z,27.10
2022-10-17T17:30:19.846Z,33.17
2022-10-17T17:32:50.451Z,28.83
2022-10-17T17:35:19.507Z,27.50
2022-10-17T17:37:48.162Z,24.57
2022-10-17T17:40:18.391Z,23.40
2022-10-17T17:42:47.203Z,31.07
2022-10-17T17:45:16.509Z,28.97
2022-10-17T17:47:45.545Z,25.93
2022-10-17T17:50:20.420Z,27.63
2022-10-17T17:52:51.627Z,29.30
2022-10-17T17:55:20.632Z,28.87
2022-10-17T17:57:49.426Z,26.90
2022-10-17T18:00:17.862Z,34.50
2022-10-17T18:02:48.204Z,27.33
2022-10-17T18:05:19.186Z,26.30
2022-10-17T18:07:48.615Z,28.23
2022-10-17T18:10:18.009Z,31.03
2022-10-17T18:12:47.347Z,32.57
2022-10-17T18:15:16.154Z,30.60
2022-10-17T18:17:45.205Z,29.53
2022-10-17T18:20:14.546Z,36.00
2022-10-17T18:22:44.728Z,30.60
2022-10-17T18:25:13.356Z,28.60
2022-10-17T18:27:42.471Z,33.47
2022-10-17T18:30:12.344Z,30.83
2022-10-17T18:32:41.270Z,30.20
2022-10-17T18:35:11.043Z,30.77
2022-10-17T18:40:11.931Z,28.93
2022-10-17T18:42:43.455Z,32.63
2022-10-17T18:45:12.728Z,36.13
2022-10-17T18:47:45.483Z,31.03
2022-10-17T18:50:13.849Z,28.00
2022-10-17T18:52:43.185Z,32.70
2022-10-17T18:55:13.359Z,32.63
2022-10-17T18:57:41.844Z,37.93
2022-10-17T19:00:12.700Z,39.73
2022-10-17T19:02:41.872Z,36.90
2022-10-17T19:05:11.312Z,27.27
2022-10-17T19:07:40.352Z,30.40
2022-10-17T19:10:09.690Z,31.83
2022-10-17T19:12:39.610Z,27.17
2022-10-17T19:15:09.488Z,31.10
2022-10-17T19:17:38.211Z,35.47
2022-10-17T19:20:08.395Z,31.10
2022-10-17T19:22:36.746Z,30.53
2022-10-17T19:25:06.171Z,24.23
2022-10-17T19:27:35.277Z,26.03
2022-10-17T19:30:06.525Z,29.60
2022-10-17T19:32:36.901Z,28.90
2022-10-17T19:35:06.678Z,29.67
2022-10-17T19:37:35.603Z,35.13
2022-10-17T19:40:04.461Z,30.40
2022-10-17T19:42:35.340Z,28.40
2022-10-17T19:45:06.000Z,27.83
2022-10-17T19:47:35.559Z,29.87
2022-10-17T19:50:04.945Z,22.87
2022-10-17T19:52:34.052Z,31.23
2022-10-17T19:55:03.093Z,31.20
2022-10-17T19:57:32.051Z,26.50
2022-10-17T20:00:01.197Z,29.03
2022-10-17T20:02:32.359Z,28.23
2022-10-17T20:05:17.599Z,39.17
2022-10-17T20:07:47.362Z,30.43
2022-10-17T20:10:16.596Z,28.77
2022-10-17T20:12:45.578Z,23.33
2022-10-17T20:15:15.159Z,25.00
2022-10-17T20:17:45.659Z,27.27
2022-10-17T20:20:14.527Z,27.27
2022-10-17T20:22:44.393Z,27.73
2022-10-17T20:25:13.479Z,30.20
2022-10-17T20:27:42.372Z,22.33
2022-10-17T20:30:12.218Z,28.90
2022-10-17T20:32:41.148Z,30.43
2022-10-17T20:35:12.171Z,23.70
2022-10-17T20:37:42.728Z,29.43
2022-10-17T20:43:02.645Z,23.80
2022-10-17T20:45:44.245Z,25.20
2022-10-17T20:48:20.513Z,24.60
2022-10-17T20:50:51.154Z,22.87
2022-10-17T20:53:37.325Z,28.33
2022-10-17T20:56:13.327Z,22.87
2022-10-17T20:58:42.223Z,27.23
2022-10-17T21:01:12.024Z,21.00
2022-10-17T21:03:44.024Z,21.47
2022-10-17T21:06:17.061Z,22.43
2022-10-17T21:08:46.232Z,21.07
2022-10-17T21:11:17.382Z,25.20
2022-10-17T21:13:47.261Z,20.77
2022-10-17T21:16:17.588Z,17.37
2022-10-17T21:18:46.355Z,22.50
2022-10-17T21:21:18.648Z,18.73
2022-10-17T21:23:49.043Z,32.10
2022-10-17T21:26:18.280Z,25.43
2022-10-17T21:28:48.086Z,25.60
2022-10-17T21:31:19.767Z,23.23
2022-10-17T21:33:49.861Z,20.30
2022-10-17T21:36:20.414Z,28.07
2022-10-17T21:38:51.151Z,19.17
2022-10-17T21:41:21.962Z,24.27
2022-10-17T21:43:53.991Z,17.67
2022-10-17T21:46:25.506Z,20.43
2022-10-17T21:48:54.671Z,26.13
2022-10-17T21:51:26.085Z,20.03
2022-10-17T21:53:56.189Z,19.23
2022-10-17T21:56:29.095Z,22.50
2022-10-17T21:58:58.331Z,24.80
2022-10-17T22:01:28.537Z,20.13
2022-10-17T22:03:58.774Z,19.10
2022-10-17T22:06:47.087Z,18.70
2022-10-17T22:09:19.609Z,24.97
2022-10-17T22:11:49.981Z,20.87
2022-10-17T22:14:21.057Z,22.73
2022-10-17T22:16:50.596Z,21.87
2022-10-17T22:19:27.379Z,19.70
2022-10-17T22:21:57.776Z,19.83
2022-10-17T22:24:26.412Z,20.07
2022-10-17T22:26:55.112Z,23.20
2022-10-17T22:29:24.230Z,21.70
2022-10-17T22:31:52.609Z,22.83
2022-10-17T22:34:21.141Z,19.40
2022-10-17T22:36:49.965Z,19.30
2022-10-17T22:39:20.262Z,18.67
2022-10-17T22:41:48.896Z,22.37
2022-10-17T22:44:17.788Z,18.10
2022-10-17T22:46:46.473Z,17.97
2022-10-17T22:49:15.599Z,34.67
2022-10-17T22:51:44.492Z,26.53
2022-10-17T22:54:13.662Z,20.27
2022-10-17T22:56:43.595Z,21.03
2022-10-17T22:59:12.608Z,22.57
2022-10-17T23:01:41.400Z,23.40
2022-10-17T23:04:10.186Z,19.03
2022-10-17T23:06:38.819Z,21.23
2022-10-17T23:09:07.657Z,19.83
2022-10-17T23:11:36.610Z,22.60
2022-10-17T23:14:06.924Z,26.70
2022-10-17T23:16:35.239Z,19.00
2022-10-17T23:19:03.984Z,22.10
2022-10-17T23:21:32.786Z,19.43
2022-10-17T23:24:01.647Z,21.53
2022-10-17T23:26:30.443Z,17.80
2022-10-17T23:28:59.197Z,18.43
2022-10-17T23:31:29.523Z,18.20
2022-10-17T23:33:58.285Z,20.20
2022-10-17T23:36:27.277Z,20.37
2022-10-17T23:38:58.457Z,22.40
2022-10-17T23:41:27.163Z,19.00
2022-10-17T23:43:55.619Z,20.83
2022-10-17T23:46:24.155Z,18.80
2022-10-17T23:48:54.177Z,18.60
2022-10-17T23:51:22.775Z,17.40
2022-10-17T23:53:51.536Z,23.33
2022-10-17T23:56:20.788Z,32.40
2022-10-17T23:58:49.702Z,22.93
